Flight Track Log - Related Links

Times and Time Zones

All times are in EDT time to prevent confusion due to time zone crossing. See the N406CT flight status page for this flight to view local times or setup timezone preferences in your user account.

Time Position Orientation Groundspeed Altitude Reporting Facility
EDT Latitude Longitude Course Direction KTS MPH feet Rate Location/Type
Tue 04:22:16 PM 41.2906 -75.8322 47° Northeast 235 270 4,900  Level New York Center
Tue 04:23:17 PM 41.3606 -75.8542 347° North 260 299 6,100 1,765 Climbing New York Center
Tue 04:24:15 PM 41.4286 -75.8703 350° North 260 299 8,400 2,085 Climbing New York Center
Tue 04:25:15 PM 41.4914 -75.8614 North 234 269 10,200 1,700 Climbing New York Center
Tue 04:26:00 PM 41.5911 -75.3223 47° Northeast  Level FlightAware Approximate
Tue 04:26:15 PM 41.5500 -75.8103 33° Northeast 228 262 11,800  Level New York Center
Tue 04:27:00 PM 41.6456 -75.2445 47° Northeast  Level FlightAware Approximate
Tue 04:28:41 PM 41.6911 -75.6792 35° Northeast 242 278 15,100  Level Boston Center
Tue 04:29:41 PM 41.7492 -75.6236 36° Northeast 247 284 16,600 1,450 Climbing Boston Center
Tue 04:30:41 PM 41.8089 -75.5681 35° Northeast 247 284 18,000 1,350 Climbing Boston Center
Tue 04:31:41 PM 41.8669 -75.5097 37° Northeast 247 284 19,300 1,000 Climbing Boston Center
Tue 04:32:41 PM 41.9289 -75.4569 32° Northeast 252 290 20,000 350 Climbing Boston Center
Tue 04:33:41 PM 41.9953 -75.3872 38° Northeast 273 314 20,000  Level Boston Center
Tue 04:34:41 PM 42.0678 -75.3181 35° Northeast 296 341 20,000  Level Boston Center
Tue 04:35:41 PM 42.1467 -75.2489 33° Northeast 321 369 20,000  Level Boston Center
Tue 04:36:41 PM 42.2256 -75.1767 34° Northeast 337 388 20,000 50 Level Boston Center
Tue 04:37:41 PM 42.3000 -75.1153 31° Northeast 342 394 20,100 500 Climbing Boston Center
Tue 04:38:41 PM 42.3767 -75.0539 31° Northeast 337 388 21,000 450 Climbing Boston Center
Tue 04:39:41 PM 42.4553 -74.9842 33° Northeast 331 381 21,000  Level Boston Center
Tue 04:40:41 PM 42.5319 -74.9111 35° Northeast 331 381 21,000  Level Boston Center
Tue 04:41:41 PM 42.5883 -74.8006 55° Northeast 337 388 21,000  Level Boston Center
Tue 04:42:41 PM 42.6469 -74.6928 53° Northeast 342 394 21,000  Level Boston Center
Tue 04:43:41 PM 42.7031 -74.5875 54° Northeast 347 399 21,000  Level Boston Center
Tue 04:44:41 PM 42.7614 -74.4792 54° Northeast 347 399 21,000  Level Boston Center
Tue 04:45:41 PM 42.8175 -74.3706 55° Northeast 347 399 21,000  Level Boston Center
Tue 04:46:42 PM 42.8714 -74.2589 57° Northeast 347 399 21,000  Level Boston Center
Tue 04:47:41 PM 42.9272 -74.1500 55° Northeast 347 399 21,000 -321 Level Boston Center
Tue 04:48:53 PM 42.9853 -74.0381 55° Northeast 353 406 20,300 -591 Descending Boston Center
Tue 04:49:53 PM 43.0558 -73.8978 55° Northeast 358 412 19,700 -450 Descending Boston Center
Tue 04:50:53 PM 43.1258 -73.8056 44° Northeast 351 404 19,400 -350 Descending Boston Center
Tue 04:51:53 PM 43.2122 -73.7136 38° Northeast 350 403 19,000 -200 Descending Boston Center
Tue 04:52:53 PM 43.2883 -73.6294 39° Northeast 355 409 19,000  Level Boston Center
Tue 04:53:53 PM 43.3683 -73.5453 37° Northeast 350 403 19,000  Level Boston Center
Tue 04:54:53 PM 43.4378 -73.4722 37° Northeast 350 403 19,000  Level Boston Center
Tue 04:56:17 PM 43.5486 -73.4283 16° North 339 390 19,000 -625 Level Boston Center
Tue 04:57:17 PM 43.6761 -73.3958 10° North 347 399 17,500 -1,700 Descending Boston Center
Tue 04:58:17 PM 43.7678 -73.3686 12° North 347 399 15,600 -1,900 Descending Boston Center
Tue 04:59:17 PM 43.8619 -73.3414 12° North 341 392 13,700 -1,950 Descending Boston Center
Tue 05:00:17 PM 43.9475 -73.3139 13° North 331 381 11,700 -1,850 Descending Boston Center
Tue 05:01:17 PM 44.0269 -73.2919 11° North 320 368 10,000 -1,600 Descending Boston Center
Tue 05:02:17 PM 44.1042 -73.2611 16° North 297 342 8,500 -1,600 Descending Boston Center
Tue 05:03:17 PM 44.1794 -73.2158 23° Northeast 285 328 6,800 -1,800 Descending Boston Center
Tue 05:04:17 PM 44.2464 -73.1675 27° Northeast 279 321 4,900 -1,650 Descending Boston Center
Tue 05:05:17 PM 44.3156 -73.1364 18° North 273 314 3,500 -1,150 Descending Boston Center
Tue 05:06:17 PM 44.3822 -73.1169 12° North 250 288 2,600 -942 Descending Boston Center
Tue 05:07:18 PM 44.4386 -73.1058 North 200 230 1,600 -1,000 Descending Boston Center
Tue 05:08:29 PM 44.4675 -73.1497 313° West 128 147 400 -550 Descending Boston Center
Tue 05:09:29 PM 44.4736 -73.1586 314° West 69 79 400  Level Boston Center
Tue 05:10:29 PM 44.4717 -73.1558 134° Southeast 14 16 400  Level Boston Center
Tue 05:11:29 PM 44.4717 -73.1558 134° Southeast 9 10 400  Level Boston Center
Tue 05:12:29 PM 44.4717 -73.1586 270° West 9 10 400  Level Boston Center

Login

Don't have an account? Register now (free) for customized features, flight alerts, and more!